<?xml version="1.0" encoding="UTF-8"?>
<gpx version="1.1" creator="Endomondo.com" xsi:schemaLocation="http://www.topografix.com/GPX/1/1 http://www.topografix.com/GPX/1/1/gpx.xsd http://www.garmin.com/xmlschemas/GpxExtensions/v3 http://www.garmin.com/xmlschemas/GpxExtensionsv3.xsd http://www.garmin.com/xmlschemas/TrackPointExtension/v1 http://www.garmin.com/xmlschemas/TrackPointExtensionv1.xsd" xmlns="http://www.topografix.com/GPX/1/1" xmlns:gpxtpx="http://www.garmin.com/xmlschemas/TrackPointExtension/v1" xmlns:gpxx="http://www.garmin.com/xmlschemas/GpxExtensions/v3" xmlns:xsi="http://www.w3.org/2001/XMLSchema-instance">
  <metadata>
    <author>
      <name>Rafael Avila Vegué</name>
      <email id="fatfrog65" domain="hotmail.com"/>
    </author>
    <link href="http://www.endomondo.com">
      <text>Endomondo</text>
    </link>
    <time>2013-02-17T11:25:12Z</time>
    <bounds minlat="40.304312" minlon="-4.580646" maxlat="40.302744" maxlon="-4.573479"/>
  </metadata>
  <trk>
    <src>http://www.endomondo.com/</src>
    <link href="http://www.endomondo.com/workouts/96482546/6980724">
      <text>endomondo</text>
    </link>
    <type>HIKING</type>
    <trkseg>
      <trkpt lat="40.304312" lon="-4.580646">
        <time>2012-09-30T10:00:21Z</time>
      </trkpt>
      <trkpt lat="40.304312" lon="-4.580646">
        <ele>798.0</ele>
        <time>2012-09-30T10:00:25Z</time>
      </trkpt>
      <trkpt lat="40.304309" lon="-4.580959">
        <ele>804.0</ele>
        <time>2012-09-30T10:01:07Z</time>
      </trkpt>
      <trkpt lat="40.304342" lon="-4.581109">
        <ele>804.0</ele>
        <time>2012-09-30T10:01:22Z</time>
      </trkpt>
      <trkpt lat="40.304305" lon="-4.581275">
        <ele>805.0</ele>
        <time>2012-09-30T10:01:44Z</time>
      </trkpt>
      <trkpt lat="40.304427" lon="-4.58156">
        <ele>804.0</ele>
        <time>2012-09-30T10:02:16Z</time>
      </trkpt>
      <trkpt lat="40.30451" lon="-4.581673">
        <ele>804.0</ele>
        <time>2012-09-30T10:02:27Z</time>
      </trkpt>
      <trkpt lat="40.304591" lon="-4.581761">
        <ele>804.0</ele>
        <time>2012-09-30T10:02:38Z</time>
      </trkpt>
      <trkpt lat="40.304439" lon="-4.581917">
        <ele>805.0</ele>
        <time>2012-09-30T10:02:55Z</time>
      </trkpt>
      <trkpt lat="40.304416" lon="-4.581939">
        <ele>805.0</ele>
        <time>2012-09-30T10:02:58Z</time>
      </trkpt>
      <trkpt lat="40.304517" lon="-4.581812">
        <ele>806.0</ele>
        <time>2012-09-30T10:03:21Z</time>
      </trkpt>
      <trkpt lat="40.304621" lon="-4.581744">
        <ele>806.0</ele>
        <time>2012-09-30T10:03:31Z</time>
      </trkpt>
      <trkpt lat="40.304621" lon="-4.581744">
        <ele>806.0</ele>
        <time>2012-09-30T10:03:38Z</time>
      </trkpt>
      <trkpt lat="40.304614" lon="-4.581498">
        <ele>807.0</ele>
        <time>2012-09-30T10:04:46Z</time>
      </trkpt>
      <trkpt lat="40.304675" lon="-4.581261">
        <ele>806.0</ele>
        <time>2012-09-30T10:05:04Z</time>
      </trkpt>
      <trkpt lat="40.304555" lon="-4.581171">
        <ele>805.0</ele>
        <time>2012-09-30T10:05:21Z</time>
      </trkpt>
      <trkpt lat="40.304831" lon="-4.581317">
        <ele>805.0</ele>
        <time>2012-09-30T10:06:52Z</time>
      </trkpt>
      <trkpt lat="40.305121" lon="-4.581326">
        <ele>805.0</ele>
        <time>2012-09-30T10:07:37Z</time>
      </trkpt>
      <trkpt lat="40.305269" lon="-4.581272">
        <ele>805.0</ele>
        <time>2012-09-30T10:07:56Z</time>
      </trkpt>
      <trkpt lat="40.305269" lon="-4.581272">
        <ele>805.0</ele>
        <time>2012-09-30T10:08:03Z</time>
      </trkpt>
      <trkpt lat="40.305411" lon="-4.581289">
        <ele>805.0</ele>
        <time>2012-09-30T10:08:17Z</time>
      </trkpt>
      <trkpt lat="40.305637" lon="-4.581115">
        <ele>806.0</ele>
        <time>2012-09-30T10:09:01Z</time>
      </trkpt>
      <trkpt lat="40.305933" lon="-4.581039">
        <ele>805.0</ele>
        <time>2012-09-30T10:09:46Z</time>
      </trkpt>
      <trkpt lat="40.306177" lon="-4.580852">
        <ele>804.0</ele>
        <time>2012-09-30T10:10:36Z</time>
      </trkpt>
      <trkpt lat="40.306428" lon="-4.58072">
        <ele>804.0</ele>
        <time>2012-09-30T10:11:18Z</time>
      </trkpt>
      <trkpt lat="40.306713" lon="-4.580617">
        <ele>804.0</ele>
        <time>2012-09-30T10:11:56Z</time>
      </trkpt>
      <trkpt lat="40.30688" lon="-4.580613">
        <ele>804.0</ele>
        <time>2012-09-30T10:12:13Z</time>
      </trkpt>
      <trkpt lat="40.307019" lon="-4.580627">
        <ele>804.0</ele>
        <time>2012-09-30T10:12:31Z</time>
      </trkpt>
      <trkpt lat="40.307339" lon="-4.5806">
        <ele>804.0</ele>
        <time>2012-09-30T10:13:13Z</time>
      </trkpt>
      <trkpt lat="40.307436" lon="-4.580726">
        <ele>805.0</ele>
        <time>2012-09-30T10:13:26Z</time>
      </trkpt>
      <trkpt lat="40.307469" lon="-4.580768">
        <ele>806.0</ele>
        <time>2012-09-30T10:13:30Z</time>
      </trkpt>
      <trkpt lat="40.307506" lon="-4.581121">
        <ele>808.0</ele>
        <time>2012-09-30T10:14:05Z</time>
      </trkpt>
      <trkpt lat="40.307511" lon="-4.581151">
        <ele>808.0</ele>
        <time>2012-09-30T10:14:09Z</time>
      </trkpt>
      <trkpt lat="40.307616" lon="-4.581421">
        <ele>812.0</ele>
        <time>2012-09-30T10:14:35Z</time>
      </trkpt>
      <trkpt lat="40.307762" lon="-4.581629">
        <ele>813.0</ele>
        <time>2012-09-30T10:14:41Z</time>
      </trkpt>
      <trkpt lat="40.308014" lon="-4.582009">
        <ele>814.0</ele>
        <time>2012-09-30T10:14:48Z</time>
      </trkpt>
      <trkpt lat="40.308177" lon="-4.582321">
        <ele>814.0</ele>
        <time>2012-09-30T10:14:58Z</time>
      </trkpt>
      <trkpt lat="40.308339" lon="-4.582537">
        <ele>813.0</ele>
        <time>2012-09-30T10:15:05Z</time>
      </trkpt>
      <trkpt lat="40.308382" lon="-4.582562">
        <ele>813.0</ele>
        <time>2012-09-30T10:15:07Z</time>
      </trkpt>
      <trkpt lat="40.308228" lon="-4.582553">
        <ele>813.0</ele>
        <time>2012-09-30T10:15:17Z</time>
      </trkpt>
      <trkpt lat="40.307936" lon="-4.582601">
        <ele>814.0</ele>
        <time>2012-09-30T10:15:30Z</time>
      </trkpt>
      <trkpt lat="40.308051" lon="-4.582926">
        <ele>814.0</ele>
        <time>2012-09-30T10:15:47Z</time>
      </trkpt>
      <trkpt lat="40.308053" lon="-4.582569">
        <ele>814.0</ele>
        <time>2012-09-30T10:15:50Z</time>
      </trkpt>
      <trkpt lat="40.308217" lon="-4.58236">
        <ele>810.0</ele>
        <time>2012-09-30T10:16:21Z</time>
      </trkpt>
      <trkpt lat="40.308781" lon="-4.581898">
        <ele>808.0</ele>
        <time>2012-09-30T10:16:30Z</time>
      </trkpt>
      <trkpt lat="40.30917" lon="-4.581998">
        <ele>806.0</ele>
        <time>2012-09-30T10:16:38Z</time>
      </trkpt>
      <trkpt lat="40.309465" lon="-4.582089">
        <ele>806.0</ele>
        <time>2012-09-30T10:16:44Z</time>
      </trkpt>
      <trkpt lat="40.308703" lon="-4.581404">
        <ele>801.0</ele>
        <time>2012-09-30T10:17:06Z</time>
      </trkpt>
      <trkpt lat="40.308703" lon="-4.581404">
        <ele>801.0</ele>
        <time>2012-09-30T10:17:12Z</time>
      </trkpt>
      <trkpt lat="40.308869" lon="-4.581178">
        <ele>806.0</ele>
        <time>2012-09-30T10:18:46Z</time>
      </trkpt>
      <trkpt lat="40.308861" lon="-4.580807">
        <ele>806.0</ele>
        <time>2012-09-30T10:19:51Z</time>
      </trkpt>
      <trkpt lat="40.308939" lon="-4.580484">
        <ele>804.0</ele>
        <time>2012-09-30T10:20:24Z</time>
      </trkpt>
      <trkpt lat="40.308704" lon="-4.580217">
        <ele>804.0</ele>
        <time>2012-09-30T10:20:41Z</time>
      </trkpt>
      <trkpt lat="40.30839" lon="-4.580069">
        <ele>802.0</ele>
        <time>2012-09-30T10:20:58Z</time>
      </trkpt>
      <trkpt lat="40.308278" lon="-4.579929">
        <ele>798.0</ele>
        <time>2012-09-30T10:21:02Z</time>
      </trkpt>
      <trkpt lat="40.30811" lon="-4.579743">
        <ele>797.0</ele>
        <time>2012-09-30T10:21:07Z</time>
      </trkpt>
      <trkpt lat="40.307931" lon="-4.579403">
        <ele>794.998</ele>
        <time>2012-09-30T10:21:22Z</time>
      </trkpt>
      <trkpt lat="40.307628" lon="-4.579092">
        <ele>794.998</ele>
        <time>2012-09-30T10:21:25Z</time>
      </trkpt>
      <trkpt lat="40.306899" lon="-4.578184">
        <ele>795.0</ele>
        <time>2012-09-30T10:21:31Z</time>
      </trkpt>
      <trkpt lat="40.309547" lon="-4.580185">
        <ele>793.0</ele>
        <time>2012-09-30T10:22:00Z</time>
      </trkpt>
      <trkpt lat="40.309782" lon="-4.5801">
        <ele>794.0</ele>
        <time>2012-09-30T10:22:05Z</time>
      </trkpt>
      <trkpt lat="40.309782" lon="-4.5801">
        <ele>794.0</ele>
        <time>2012-09-30T10:22:10Z</time>
      </trkpt>
      <trkpt lat="40.309558" lon="-4.580097">
        <ele>804.0</ele>
        <time>2012-09-30T10:23:50Z</time>
      </trkpt>
      <trkpt lat="40.309558" lon="-4.580097">
        <ele>804.0</ele>
        <time>2012-09-30T10:23:57Z</time>
      </trkpt>
      <trkpt lat="40.309697" lon="-4.580133">
        <ele>803.0</ele>
        <time>2012-09-30T10:24:34Z</time>
      </trkpt>
      <trkpt lat="40.309836" lon="-4.580176">
        <ele>803.0</ele>
        <time>2012-09-30T10:24:46Z</time>
      </trkpt>
      <trkpt lat="40.310113" lon="-4.58014">
        <ele>802.0</ele>
        <time>2012-09-30T10:25:02Z</time>
      </trkpt>
      <trkpt lat="40.310437" lon="-4.580105">
        <ele>806.0</ele>
        <time>2012-09-30T10:25:08Z</time>
      </trkpt>
      <trkpt lat="40.310721" lon="-4.580141">
        <ele>809.0</ele>
        <time>2012-09-30T10:25:13Z</time>
      </trkpt>
      <trkpt lat="40.310885" lon="-4.580171">
        <ele>809.0</ele>
        <time>2012-09-30T10:25:16Z</time>
      </trkpt>
      <trkpt lat="40.311185" lon="-4.580324">
        <ele>814.0</ele>
        <time>2012-09-30T10:25:24Z</time>
      </trkpt>
      <trkpt lat="40.311124" lon="-4.580557">
        <ele>814.0</ele>
        <time>2012-09-30T10:25:32Z</time>
      </trkpt>
      <trkpt lat="40.310898" lon="-4.580826">
        <ele>816.0</ele>
        <time>2012-09-30T10:25:39Z</time>
      </trkpt>
      <trkpt lat="40.311025" lon="-4.580996">
        <ele>819.0</ele>
        <time>2012-09-30T10:25:58Z</time>
      </trkpt>
      <trkpt lat="40.311092" lon="-4.581446">
        <ele>827.0</ele>
        <time>2012-09-30T10:26:15Z</time>
      </trkpt>
      <trkpt lat="40.310683" lon="-4.581221">
        <ele>829.0</ele>
        <time>2012-09-30T10:26:29Z</time>
      </trkpt>
      <trkpt lat="40.310683" lon="-4.581221">
        <ele>829.0</ele>
        <time>2012-09-30T10:26:34Z</time>
      </trkpt>
      <trkpt lat="40.310545" lon="-4.581092">
        <ele>818.0</ele>
        <time>2012-09-30T10:27:42Z</time>
      </trkpt>
      <trkpt lat="40.310545" lon="-4.581092">
        <ele>818.0</ele>
        <time>2012-09-30T10:27:48Z</time>
      </trkpt>
      <trkpt lat="40.310291" lon="-4.581193">
        <ele>807.0</ele>
        <time>2012-09-30T10:28:33Z</time>
      </trkpt>
      <trkpt lat="40.310156" lon="-4.581249">
        <ele>805.0</ele>
        <time>2012-09-30T10:28:45Z</time>
      </trkpt>
      <trkpt lat="40.309691" lon="-4.581095">
        <ele>805.0</ele>
        <time>2012-09-30T10:28:58Z</time>
      </trkpt>
      <trkpt lat="40.309592" lon="-4.581041">
        <ele>805.0</ele>
        <time>2012-09-30T10:29:03Z</time>
      </trkpt>
      <trkpt lat="40.309592" lon="-4.581041">
        <ele>805.0</ele>
        <time>2012-09-30T10:29:09Z</time>
      </trkpt>
      <trkpt lat="40.309721" lon="-4.581075">
        <ele>805.0</ele>
        <time>2012-09-30T10:29:19Z</time>
      </trkpt>
      <trkpt lat="40.309793" lon="-4.58114">
        <ele>805.0</ele>
        <time>2012-09-30T10:29:34Z</time>
      </trkpt>
      <trkpt lat="40.310484" lon="-4.58153">
        <ele>803.0</ele>
        <time>2012-09-30T10:31:26Z</time>
      </trkpt>
      <trkpt lat="40.310484" lon="-4.58153">
        <ele>803.0</ele>
        <time>2012-09-30T10:31:32Z</time>
      </trkpt>
      <trkpt lat="40.310695" lon="-4.581851">
        <ele>807.0</ele>
        <time>2012-09-30T10:31:53Z</time>
      </trkpt>
      <trkpt lat="40.310731" lon="-4.581902">
        <ele>807.0</ele>
        <time>2012-09-30T10:31:55Z</time>
      </trkpt>
      <trkpt lat="40.310556" lon="-4.582038">
        <ele>816.0</ele>
        <time>2012-09-30T10:34:33Z</time>
      </trkpt>
      <trkpt lat="40.310437" lon="-4.582128">
        <ele>816.0</ele>
        <time>2012-09-30T10:34:38Z</time>
      </trkpt>
      <trkpt lat="40.310304" lon="-4.582221">
        <ele>816.0</ele>
        <time>2012-09-30T10:34:50Z</time>
      </trkpt>
      <trkpt lat="40.310284" lon="-4.582239">
        <ele>816.0</ele>
        <time>2012-09-30T10:34:53Z</time>
      </trkpt>
      <trkpt lat="40.3102" lon="-4.582046">
        <ele>814.0</ele>
        <time>2012-09-30T10:35:10Z</time>
      </trkpt>
      <trkpt lat="40.3102" lon="-4.582046">
        <ele>814.0</ele>
        <time>2012-09-30T10:35:17Z</time>
      </trkpt>
      <trkpt lat="40.31022" lon="-4.581633">
        <ele>812.0</ele>
        <time>2012-09-30T10:36:01Z</time>
      </trkpt>
      <trkpt lat="40.310246" lon="-4.581489">
        <ele>812.0</ele>
        <time>2012-09-30T10:36:06Z</time>
      </trkpt>
      <trkpt lat="40.310252" lon="-4.581453">
        <ele>812.0</ele>
        <time>2012-09-30T10:36:09Z</time>
      </trkpt>
      <trkpt lat="40.309941" lon="-4.580971">
        <ele>812.0</ele>
        <time>2012-09-30T10:39:00Z</time>
      </trkpt>
      <trkpt lat="40.310039" lon="-4.580756">
        <ele>809.0</ele>
        <time>2012-09-30T10:39:09Z</time>
      </trkpt>
      <trkpt lat="40.309945" lon="-4.580547">
        <ele>807.0</ele>
        <time>2012-09-30T10:39:58Z</time>
      </trkpt>
      <trkpt lat="40.309945" lon="-4.580547">
        <ele>807.0</ele>
        <time>2012-09-30T10:40:07Z</time>
      </trkpt>
      <trkpt lat="40.309842" lon="-4.580149">
        <ele>807.0</ele>
        <time>2012-09-30T10:42:31Z</time>
      </trkpt>
      <trkpt lat="40.30959" lon="-4.580317">
        <ele>807.0</ele>
        <time>2012-09-30T10:42:47Z</time>
      </trkpt>
      <trkpt lat="40.309693" lon="-4.580541">
        <ele>807.0</ele>
        <time>2012-09-30T10:43:01Z</time>
      </trkpt>
      <trkpt lat="40.30981" lon="-4.580651">
        <ele>807.0</ele>
        <time>2012-09-30T10:43:10Z</time>
      </trkpt>
      <trkpt lat="40.309608" lon="-4.58086">
        <ele>806.0</ele>
        <time>2012-09-30T10:43:27Z</time>
      </trkpt>
      <trkpt lat="40.309555" lon="-4.580855">
        <ele>806.0</ele>
        <time>2012-09-30T10:43:30Z</time>
      </trkpt>
      <trkpt lat="40.308989" lon="-4.580059">
        <ele>807.0</ele>
        <time>2012-09-30T10:45:56Z</time>
      </trkpt>
      <trkpt lat="40.308989" lon="-4.580059">
        <ele>807.0</ele>
        <time>2012-09-30T10:46:03Z</time>
      </trkpt>
      <trkpt lat="40.308803" lon="-4.580136">
        <ele>807.0</ele>
        <time>2012-09-30T10:46:25Z</time>
      </trkpt>
      <trkpt lat="40.30867" lon="-4.580152">
        <ele>807.0</ele>
        <time>2012-09-30T10:46:38Z</time>
      </trkpt>
      <trkpt lat="40.30841" lon="-4.580997">
        <ele>806.0</ele>
        <time>2012-09-30T10:47:56Z</time>
      </trkpt>
      <trkpt lat="40.30819" lon="-4.581089">
        <ele>806.0</ele>
        <time>2012-09-30T10:48:27Z</time>
      </trkpt>
      <trkpt lat="40.308082" lon="-4.581489">
        <ele>805.0</ele>
        <time>2012-09-30T10:48:43Z</time>
      </trkpt>
      <trkpt lat="40.308156" lon="-4.581691">
        <ele>805.0</ele>
        <time>2012-09-30T10:48:58Z</time>
      </trkpt>
      <trkpt lat="40.308156" lon="-4.581691">
        <ele>805.0</ele>
        <time>2012-09-30T10:49:05Z</time>
      </trkpt>
      <trkpt lat="40.308097" lon="-4.581579">
        <ele>805.0</ele>
        <time>2012-09-30T10:49:16Z</time>
      </trkpt>
      <trkpt lat="40.307785" lon="-4.581557">
        <ele>804.0</ele>
        <time>2012-09-30T10:50:04Z</time>
      </trkpt>
      <trkpt lat="40.307746" lon="-4.581528">
        <ele>804.0</ele>
        <time>2012-09-30T10:50:08Z</time>
      </trkpt>
      <trkpt lat="40.30753" lon="-4.581535">
        <ele>805.0</ele>
        <time>2012-09-30T10:51:03Z</time>
      </trkpt>
      <trkpt lat="40.30753" lon="-4.581535">
        <ele>805.0</ele>
        <time>2012-09-30T10:51:11Z</time>
      </trkpt>
      <trkpt lat="40.307515" lon="-4.581172">
        <ele>814.0</ele>
        <time>2012-09-30T10:53:17Z</time>
      </trkpt>
      <trkpt lat="40.307516" lon="-4.581018">
        <ele>815.0</ele>
        <time>2012-09-30T10:53:29Z</time>
      </trkpt>
      <trkpt lat="40.307304" lon="-4.58076">
        <ele>816.0</ele>
        <time>2012-09-30T10:54:11Z</time>
      </trkpt>
      <trkpt lat="40.307023" lon="-4.580752">
        <ele>814.0</ele>
        <time>2012-09-30T10:54:56Z</time>
      </trkpt>
      <trkpt lat="40.30669" lon="-4.580839">
        <ele>809.0</ele>
        <time>2012-09-30T10:56:10Z</time>
      </trkpt>
      <trkpt lat="40.306389" lon="-4.580749">
        <ele>810.0</ele>
        <time>2012-09-30T10:56:49Z</time>
      </trkpt>
      <trkpt lat="40.306229" lon="-4.580856">
        <ele>811.0</ele>
        <time>2012-09-30T10:57:00Z</time>
      </trkpt>
      <trkpt lat="40.306208" lon="-4.580926">
        <ele>811.0</ele>
        <time>2012-09-30T10:57:07Z</time>
      </trkpt>
      <trkpt lat="40.305966" lon="-4.581052">
        <ele>809.0</ele>
        <time>2012-09-30T10:58:08Z</time>
      </trkpt>
      <trkpt lat="40.305844" lon="-4.581092">
        <ele>809.0</ele>
        <time>2012-09-30T10:58:19Z</time>
      </trkpt>
      <trkpt lat="40.305793" lon="-4.581116">
        <ele>809.0</ele>
        <time>2012-09-30T10:58:25Z</time>
      </trkpt>
      <trkpt lat="40.305568" lon="-4.581324">
        <ele>809.0</ele>
        <time>2012-09-30T10:59:07Z</time>
      </trkpt>
      <trkpt lat="40.305459" lon="-4.581276">
        <ele>809.0</ele>
        <time>2012-09-30T10:59:13Z</time>
      </trkpt>
      <trkpt lat="40.305166" lon="-4.581341">
        <ele>808.0</ele>
        <time>2012-09-30T11:00:09Z</time>
      </trkpt>
      <trkpt lat="40.304978" lon="-4.58115">
        <ele>808.0</ele>
        <time>2012-09-30T11:00:28Z</time>
      </trkpt>
      <trkpt lat="40.304978" lon="-4.58115">
        <ele>808.0</ele>
        <time>2012-09-30T11:00:33Z</time>
      </trkpt>
      <trkpt lat="40.304833" lon="-4.581137">
        <ele>807.0</ele>
        <time>2012-09-30T11:03:10Z</time>
      </trkpt>
      <trkpt lat="40.30475" lon="-4.581196">
        <ele>807.0</ele>
        <time>2012-09-30T11:03:16Z</time>
      </trkpt>
      <trkpt lat="40.304479" lon="-4.581288">
        <ele>806.0</ele>
        <time>2012-09-30T11:05:17Z</time>
      </trkpt>
      <trkpt lat="40.304479" lon="-4.581288">
        <ele>806.0</ele>
        <time>2012-09-30T11:05:24Z</time>
      </trkpt>
      <trkpt lat="40.304665" lon="-4.581282">
        <ele>808.0</ele>
        <time>2012-09-30T11:07:27Z</time>
      </trkpt>
      <trkpt lat="40.304665" lon="-4.581282">
        <ele>808.0</ele>
        <time>2012-09-30T11:11:04Z</time>
      </trkpt>
      <trkpt lat="40.304459" lon="-4.581084">
        <ele>810.0</ele>
        <time>2012-09-30T11:11:16Z</time>
      </trkpt>
      <trkpt lat="40.304297" lon="-4.580787">
        <ele>811.0</ele>
        <time>2012-09-30T11:12:01Z</time>
      </trkpt>
      <trkpt lat="40.304169" lon="-4.580447">
        <ele>810.0</ele>
        <time>2012-09-30T11:14:02Z</time>
      </trkpt>
      <trkpt lat="40.304235" lon="-4.58009">
        <ele>810.0</ele>
        <time>2012-09-30T11:14:49Z</time>
      </trkpt>
      <trkpt lat="40.304249" lon="-4.579819">
        <ele>810.0</ele>
        <time>2012-09-30T11:14:56Z</time>
      </trkpt>
      <trkpt lat="40.304356" lon="-4.579725">
        <ele>810.0</ele>
        <time>2012-09-30T11:15:04Z</time>
      </trkpt>
      <trkpt lat="40.30435" lon="-4.579561">
        <ele>810.0</ele>
        <time>2012-09-30T11:15:12Z</time>
      </trkpt>
      <trkpt lat="40.304266" lon="-4.579111">
        <ele>811.0</ele>
        <time>2012-09-30T11:15:18Z</time>
      </trkpt>
      <trkpt lat="40.304149" lon="-4.578773">
        <ele>811.0</ele>
        <time>2012-09-30T11:15:26Z</time>
      </trkpt>
      <trkpt lat="40.304027" lon="-4.57863">
        <ele>811.0</ele>
        <time>2012-09-30T11:15:31Z</time>
      </trkpt>
      <trkpt lat="40.303939" lon="-4.578277">
        <ele>810.0</ele>
        <time>2012-09-30T11:15:39Z</time>
      </trkpt>
      <trkpt lat="40.303871" lon="-4.578011">
        <ele>810.0</ele>
        <time>2012-09-30T11:15:44Z</time>
      </trkpt>
      <trkpt lat="40.303812" lon="-4.577774">
        <ele>810.0</ele>
        <time>2012-09-30T11:15:49Z</time>
      </trkpt>
      <trkpt lat="40.303828" lon="-4.577571">
        <ele>810.0</ele>
        <time>2012-09-30T11:15:58Z</time>
      </trkpt>
      <trkpt lat="40.303669" lon="-4.577348">
        <ele>810.0</ele>
        <time>2012-09-30T11:16:09Z</time>
      </trkpt>
      <trkpt lat="40.303571" lon="-4.576955">
        <ele>809.0</ele>
        <time>2012-09-30T11:16:17Z</time>
      </trkpt>
      <trkpt lat="40.303465" lon="-4.576707">
        <ele>809.0</ele>
        <time>2012-09-30T11:16:22Z</time>
      </trkpt>
      <trkpt lat="40.303333" lon="-4.576511">
        <ele>809.0</ele>
        <time>2012-09-30T11:16:27Z</time>
      </trkpt>
      <trkpt lat="40.303207" lon="-4.576248">
        <ele>809.0</ele>
        <time>2012-09-30T11:16:35Z</time>
      </trkpt>
      <trkpt lat="40.30308" lon="-4.576146">
        <ele>809.0</ele>
        <time>2012-09-30T11:16:40Z</time>
      </trkpt>
      <trkpt lat="40.30284" lon="-4.575885">
        <ele>811.0</ele>
        <time>2012-09-30T11:16:47Z</time>
      </trkpt>
      <trkpt lat="40.302681" lon="-4.575631">
        <ele>810.0</ele>
        <time>2012-09-30T11:16:52Z</time>
      </trkpt>
      <trkpt lat="40.302487" lon="-4.575368">
        <ele>809.0</ele>
        <time>2012-09-30T11:16:58Z</time>
      </trkpt>
      <trkpt lat="40.302301" lon="-4.575215">
        <ele>810.0</ele>
        <time>2012-09-30T11:17:05Z</time>
      </trkpt>
      <trkpt lat="40.30213" lon="-4.575004">
        <ele>809.0</ele>
        <time>2012-09-30T11:17:16Z</time>
      </trkpt>
      <trkpt lat="40.301848" lon="-4.574577">
        <ele>808.0</ele>
        <time>2012-09-30T11:17:28Z</time>
      </trkpt>
      <trkpt lat="40.301779" lon="-4.574444">
        <ele>808.0</ele>
        <time>2012-09-30T11:17:31Z</time>
      </trkpt>
      <trkpt lat="40.301683" lon="-4.574308">
        <ele>808.0</ele>
        <time>2012-09-30T11:17:35Z</time>
      </trkpt>
      <trkpt lat="40.301606" lon="-4.574214">
        <ele>808.0</ele>
        <time>2012-09-30T11:17:38Z</time>
      </trkpt>
      <trkpt lat="40.301531" lon="-4.574119">
        <ele>808.0</ele>
        <time>2012-09-30T11:17:41Z</time>
      </trkpt>
      <trkpt lat="40.301456" lon="-4.574025">
        <ele>808.0</ele>
        <time>2012-09-30T11:17:44Z</time>
      </trkpt>
      <trkpt lat="40.302559" lon="-4.574531">
        <ele>809.0</ele>
        <time>2012-09-30T11:18:00Z</time>
      </trkpt>
      <trkpt lat="40.30296" lon="-4.574468">
        <ele>810.0</ele>
        <time>2012-09-30T11:18:06Z</time>
      </trkpt>
      <trkpt lat="40.303168" lon="-4.574313">
        <ele>811.0</ele>
        <time>2012-09-30T11:18:11Z</time>
      </trkpt>
      <trkpt lat="40.303309" lon="-4.574114">
        <ele>810.0</ele>
        <time>2012-09-30T11:18:18Z</time>
      </trkpt>
      <trkpt lat="40.303103" lon="-4.574135">
        <ele>809.0</ele>
        <time>2012-09-30T11:18:39Z</time>
      </trkpt>
      <trkpt lat="40.302975" lon="-4.574408">
        <ele>808.0</ele>
        <time>2012-09-30T11:19:09Z</time>
      </trkpt>
      <trkpt lat="40.302975" lon="-4.574408">
        <ele>808.0</ele>
        <time>2012-09-30T11:19:14Z</time>
      </trkpt>
      <trkpt lat="40.302868" lon="-4.574196">
        <ele>802.0</ele>
        <time>2012-09-30T11:19:59Z</time>
      </trkpt>
      <trkpt lat="40.302737" lon="-4.573963">
        <ele>801.0</ele>
        <time>2012-09-30T11:20:07Z</time>
      </trkpt>
      <trkpt lat="40.302729" lon="-4.573898">
        <ele>801.0</ele>
        <time>2012-09-30T11:20:10Z</time>
      </trkpt>
      <trkpt lat="40.302836" lon="-4.573563">
        <ele>790.0</ele>
        <time>2012-09-30T11:21:44Z</time>
      </trkpt>
      <trkpt lat="40.302844" lon="-4.573354">
        <ele>790.0</ele>
        <time>2012-09-30T11:21:53Z</time>
      </trkpt>
      <trkpt lat="40.302844" lon="-4.573202">
        <ele>788.0</ele>
        <time>2012-09-30T11:22:02Z</time>
      </trkpt>
      <trkpt lat="40.302844" lon="-4.573202">
        <ele>788.0</ele>
        <time>2012-09-30T11:22:10Z</time>
      </trkpt>
      <trkpt lat="40.302746" lon="-4.573329">
        <ele>779.0</ele>
        <time>2012-09-30T11:23:33Z</time>
      </trkpt>
      <trkpt lat="40.302744" lon="-4.573479">
        <ele>778.0</ele>
        <time>2012-09-30T11:23:41Z</time>
      </trkpt>
      <trkpt lat="40.302744" lon="-4.573479">
        <time>2012-09-30T11:23:48Z</time>
      </trkpt>
    </trkseg>
    <trkseg>
      <trkpt lat="40.302744" lon="-4.573479">
        <time>2012-09-30T11:23:50Z</time>
      </trkpt>
    </trkseg>
  </trk>
</gpx>